createdAt,value
2019-01-10T00:02:39.008Z,79.28
2019-01-10T00:06:43.289Z,79.34
2019-01-10T00:10:47.704Z,79.29
2019-01-10T00:14:53.174Z,79.30
2019-01-10T00:18:57.479Z,79.25
2019-01-10T00:23:02.223Z,79.28
2019-01-10T00:27:06.507Z,79.27
2019-01-10T00:31:10.953Z,79.29
2019-01-10T00:35:15.259Z,79.24
2019-01-10T00:39:19.549Z,79.29
2019-01-10T00:43:23.830Z,79.32
2019-01-10T00:47:28.090Z,79.45
2019-01-10T00:51:32.373Z,79.50
2019-01-10T00:55:36.670Z,79.49
2019-01-10T00:59:40.946Z,79.72
2019-01-10T01:03:45.230Z,79.82
2019-01-10T01:07:51.325Z,79.86
2019-01-10T01:11:55.642Z,79.84
2019-01-10T01:16:01.623Z,79.82
2019-01-10T01:20:06.927Z,79.77
2019-01-10T01:24:14.146Z,79.78
2019-01-10T01:28:18.654Z,79.75
2019-01-10T01:32:22.957Z,79.81
2019-01-10T01:36:27.340Z,79.72
2019-01-10T01:40:31.836Z,79.75
2019-01-10T01:44:36.303Z,79.92
2019-01-10T01:48:40.963Z,79.88
2019-01-10T01:52:45.775Z,79.87
2019-01-10T01:56:50.264Z,79.86
2019-01-10T02:00:54.623Z,79.90
2019-01-10T02:04:59.162Z,79.84
2019-01-10T02:09:04.397Z,79.93
2019-01-10T02:13:16.543Z,80.04
2019-01-10T02:17:15.920Z,79.97
2019-01-10T02:21:20.369Z,80.00
2019-01-10T02:25:25.016Z,80.01
2019-01-10T02:29:29.334Z,80.03
2019-01-10T02:33:33.639Z,80.12
2019-01-10T02:37:38.206Z,80.12
2019-01-10T02:41:42.539Z,80.11
2019-01-10T02:45:46.911Z,80.37
2019-01-10T02:49:51.276Z,80.34
2019-01-10T02:53:55.558Z,80.22
2019-01-10T02:57:59.960Z,80.37
2019-01-10T03:02:04.734Z,80.17
2019-01-10T03:06:09.124Z,80.27
2019-01-10T03:10:14.672Z,80.61
2019-01-10T03:14:18.939Z,80.40
2019-01-10T03:18:23.269Z,80.47
2019-01-10T03:22:27.637Z,80.53
2019-01-10T03:26:32.088Z,80.79
2019-01-10T03:30:36.353Z,80.81
2019-01-10T03:34:40.647Z,80.66
2019-01-10T03:38:44.967Z,80.78
2019-01-10T03:42:49.329Z,80.85
2019-01-10T03:46:53.655Z,81.20
2019-01-10T03:50:58.008Z,81.24
2019-01-10T03:55:02.323Z,81.37
2019-01-10T03:59:06.661Z,81.28
2019-01-10T04:03:10.992Z,81.47
2019-01-10T04:07:15.328Z,81.44
2019-01-10T04:11:19.656Z,81.67
2019-01-10T04:15:24.096Z,81.73
2019-01-10T04:19:28.630Z,81.58
2019-01-10T04:23:32.963Z,81.98
2019-01-10T04:27:37.359Z,81.89
2019-01-10T04:31:41.889Z,82.01
2019-01-10T04:35:46.201Z,82.27
2019-01-10T04:39:50.835Z,82.02
2019-01-10T04:43:55.225Z,82.37
2019-01-10T04:47:59.607Z,82.09
2019-01-10T04:52:03.886Z,82.14
2019-01-10T04:56:08.253Z,82.19
2019-01-10T05:00:18.661Z,82.44
2019-01-10T05:04:23.887Z,82.44
2019-01-10T05:08:28.252Z,82.30
2019-01-10T05:12:32.530Z,82.44
2019-01-10T05:16:36.948Z,82.46
2019-01-10T05:20:41.297Z,82.24
2019-01-10T05:24:46.764Z,82.11
2019-01-10T05:28:51.185Z,82.18
2019-01-10T05:32:55.789Z,82.14
2019-01-10T05:37:00.183Z,82.19
2019-01-10T05:41:04.507Z,82.17
2019-01-10T05:45:10.721Z,82.13
2019-01-10T05:49:15.524Z,81.90
2019-01-10T05:53:20.044Z,81.87
2019-01-10T05:57:24.563Z,81.93
2019-01-10T06:01:29.082Z,81.65
2019-01-10T06:05:33.453Z,81.60
2019-01-10T06:09:37.847Z,81.64
2019-01-10T06:13:42.193Z,81.51
2019-01-10T06:17:46.797Z,81.46
2019-01-10T06:21:51.177Z,81.55
2019-01-10T06:25:55.697Z,81.51
2019-01-10T06:30:01.199Z,81.44
2019-01-10T06:34:06.549Z,81.50
2019-01-10T06:38:11.042Z,81.60
2019-01-10T06:42:15.459Z,81.44
2019-01-10T06:46:19.777Z,81.33
2019-01-10T06:50:24.242Z,81.17
2019-01-10T06:54:28.650Z,81.07
2019-01-10T06:58:33.002Z,80.84
2019-01-10T07:02:37.408Z,80.62
2019-01-10T07:06:42.819Z,80.50
2019-01-10T07:10:47.971Z,80.59
2019-01-10T07:14:53.612Z,80.88
2019-01-10T07:18:59.102Z,80.81
2019-01-10T07:23:04.705Z,80.96
2019-01-10T07:27:09.199Z,81.03
2019-01-10T07:31:29.569Z,80.92
2019-01-10T07:35:34.143Z,80.93
2019-01-10T07:39:39.739Z,80.91
2019-01-10T07:43:43.940Z,80.79
2019-01-10T07:47:48.852Z,80.80
2019-01-10T07:51:53.190Z,80.79
2019-01-10T07:55:57.432Z,80.78
2019-01-10T08:00:01.714Z,80.50
2019-01-10T08:04:05.962Z,80.29
2019-01-10T08:08:10.290Z,80.16
2019-01-10T08:12:15.089Z,80.25
2019-01-10T08:16:19.298Z,80.21
2019-01-10T08:20:23.578Z,80.40
2019-01-10T08:24:27.943Z,80.32
2019-01-10T08:28:32.229Z,80.14
2019-01-10T08:32:42.681Z,80.27
2019-01-10T08:36:47.332Z,80.23
2019-01-10T08:40:53.438Z,80.39
2019-01-10T08:44:59.726Z,80.56
2019-01-10T08:49:07.925Z,80.85
2019-01-10T08:53:12.592Z,80.90
2019-01-10T08:57:17.324Z,80.73
2019-01-10T09:01:21.553Z,80.91
2019-01-10T09:05:25.921Z,81.45
2019-01-10T09:09:30.232Z,81.85
2019-01-10T09:13:34.575Z,82.42
2019-01-10T09:17:38.956Z,82.53
2019-01-10T09:21:43.450Z,82.61
2019-01-10T09:25:47.945Z,82.62
2019-01-10T09:29:52.195Z,82.27
2019-01-10T09:33:56.845Z,82.43
2019-01-10T09:38:01.107Z,82.11
2019-01-10T09:42:07.429Z,82.01
2019-01-10T09:46:12.070Z,81.99
2019-01-10T09:50:18.854Z,81.61
2019-01-10T09:54:23.219Z,81.57
2019-01-10T09:58:28.742Z,80.96
2019-01-10T10:02:33.083Z,80.70
2019-01-10T10:06:37.967Z,80.22
2019-01-10T10:10:42.309Z,80.25
2019-01-10T10:14:46.623Z,80.07
2019-01-10T10:18:58.848Z,80.71
2019-01-10T10:23:03.187Z,80.00
2019-01-10T10:27:07.543Z,79.82
2019-01-10T10:31:13.665Z,79.29
2019-01-10T10:35:18.385Z,79.14
2019-01-10T10:39:24.343Z,78.94
2019-01-10T10:43:28.691Z,78.84
2019-01-10T10:47:34.986Z,78.46
2019-01-10T10:51:39.866Z,78.19
2019-01-10T10:55:44.160Z,78.35
2019-01-10T10:59:48.464Z,78.78
2019-01-10T11:03:52.778Z,78.00
2019-01-10T11:07:57.104Z,77.75
2019-01-10T11:12:01.518Z,77.62
2019-01-10T11:16:10.692Z,77.20
2019-01-10T11:20:15.468Z,77.19
2019-01-10T11:24:19.757Z,77.11
2019-01-10T11:28:24.203Z,76.99
2019-01-10T11:32:28.841Z,76.70
2019-01-10T11:36:34.022Z,76.71
2019-01-10T11:40:38.445Z,76.75
2019-01-10T11:44:45.711Z,76.59
2019-01-10T11:48:50.150Z,76.52
2019-01-10T11:52:54.761Z,76.55
2019-01-10T11:56:59.064Z,76.46
2019-01-10T12:01:06.695Z,76.60
2019-01-10T12:05:30.421Z,76.79
2019-01-10T12:09:36.915Z,76.91
2019-01-10T12:13:41.264Z,76.46
2019-01-10T12:17:45.769Z,76.45
2019-01-10T12:21:52.353Z,76.60
2019-01-10T12:26:15.752Z,75.63
2019-01-10T12:30:22.347Z,76.24
2019-01-10T12:34:26.720Z,75.99
2019-01-10T12:38:31.003Z,75.20
2019-01-10T12:42:35.326Z,75.42
2019-01-10T12:46:39.733Z,75.75
2019-01-10T12:50:44.026Z,75.59
2019-01-10T12:54:48.280Z,75.89
2019-01-10T12:58:52.499Z,76.11
2019-01-10T13:02:56.891Z,76.30
2019-01-10T13:07:01.109Z,76.60
2019-01-10T13:11:05.278Z,76.48
2019-01-10T13:15:11.754Z,76.17
2019-01-10T13:19:15.949Z,76.16
2019-01-10T13:23:20.126Z,75.81
2019-01-10T13:27:24.392Z,75.27
2019-01-10T13:31:28.522Z,75.23
2019-01-10T13:35:32.699Z,74.74
2019-01-10T13:39:36.931Z,74.77
2019-01-10T13:43:41.088Z,74.68
2019-01-10T13:47:47.972Z,74.81
2019-01-10T13:51:52.051Z,74.47
2019-01-10T13:55:56.237Z,74.34
2019-01-10T14:00:00.434Z,74.56
2019-01-10T14:04:04.623Z,74.12
2019-01-10T14:08:08.806Z,73.94
2019-01-10T14:12:12.949Z,73.94
2019-01-10T14:16:17.132Z,74.16
2019-01-10T14:20:21.319Z,73.27
2019-01-10T14:24:25.487Z,73.20
2019-01-10T14:28:29.964Z,73.03
2019-01-10T14:32:34.082Z,73.51
2019-01-10T14:36:38.589Z,73.51
2019-01-10T14:40:42.767Z,73.55
2019-01-10T14:44:46.961Z,73.84
2019-01-10T14:48:51.177Z,73.79
2019-01-10T14:52:55.309Z,74.22
2019-01-10T14:56:59.502Z,74.40
2019-01-10T15:01:03.665Z,74.52
2019-01-10T15:05:08.075Z,74.71
2019-01-10T15:09:12.271Z,74.83
2019-01-10T15:13:16.541Z,75.16
2019-01-10T15:17:20.698Z,75.35
2019-01-10T15:21:24.855Z,75.74
2019-01-10T15:25:29.067Z,75.85
2019-01-10T15:29:33.270Z,76.02
2019-01-10T15:33:37.406Z,76.11
2019-01-10T15:37:45.059Z,76.19
2019-01-10T15:41:49.303Z,76.23
2019-01-10T15:45:53.483Z,76.21
2019-01-10T15:49:57.717Z,76.17
2019-01-10T15:54:03.936Z,75.97
2019-01-10T15:58:08.157Z,75.86
2019-01-10T16:02:12.906Z,75.78
2019-01-10T16:06:17.076Z,76.34
2019-01-10T16:10:21.521Z,76.26
2019-01-10T16:14:25.733Z,75.89
2019-01-10T16:18:29.905Z,75.51
2019-01-10T16:22:34.103Z,75.46
2019-01-10T16:26:38.617Z,75.70
2019-01-10T16:30:42.764Z,75.57
2019-01-10T16:34:46.954Z,75.68
2019-01-10T16:38:51.161Z,75.60
2019-01-10T16:42:55.340Z,75.57
2019-01-10T16:46:59.655Z,75.57
2019-01-10T16:51:03.837Z,76.42
2019-01-10T16:55:08.804Z,75.41
2019-01-10T16:59:13.019Z,74.79
2019-01-10T17:03:17.156Z,74.71
2019-01-10T17:07:21.344Z,74.55
2019-01-10T17:11:25.525Z,73.95
2019-01-10T17:15:29.981Z,73.63
2019-01-10T17:19:34.126Z,73.60
2019-01-10T17:23:38.467Z,73.38
2019-01-10T17:27:42.696Z,72.37
2019-01-10T17:31:46.918Z,72.43
2019-01-10T17:35:51.103Z,72.54
2019-01-10T17:39:55.344Z,72.03
2019-01-10T17:43:59.819Z,72.24
2019-01-10T17:48:04.276Z,72.46
2019-01-10T17:52:08.817Z,72.11
2019-01-10T17:56:12.965Z,71.92
2019-01-10T18:00:19.708Z,71.51
2019-01-10T18:04:23.851Z,70.89
2019-01-10T18:08:28.030Z,71.43
2019-01-10T18:12:32.194Z,71.29
2019-01-10T18:16:36.361Z,71.32
2019-01-10T18:20:41.528Z,70.04
2019-01-10T18:24:45.674Z,70.12
2019-01-10T18:28:49.930Z,68.13
2019-01-10T18:32:54.306Z,68.89
2019-01-10T18:36:58.483Z,69.28
2019-01-10T18:41:02.627Z,69.69
2019-01-10T18:45:10.239Z,69.17
2019-01-10T18:49:14.453Z,69.57
2019-01-10T18:53:18.623Z,69.52
2019-01-10T18:57:23.113Z,69.12
2019-01-10T19:01:27.295Z,68.02
2019-01-10T19:05:31.948Z,67.51
2019-01-10T19:09:36.168Z,67.24
2019-01-10T19:13:40.356Z,67.29
2019-01-10T19:17:44.478Z,67.57
2019-01-10T19:21:48.709Z,67.48
2019-01-10T19:25:52.845Z,67.98
2019-01-10T19:29:57.022Z,68.67
2019-01-10T19:34:01.226Z,69.39
2019-01-10T19:38:05.690Z,70.03
2019-01-10T19:42:12.754Z,70.17
2019-01-10T19:46:16.075Z,69.96
2019-01-10T19:50:22.399Z,70.26
2019-01-10T19:54:26.590Z,70.22
2019-01-10T19:58:30.763Z,70.34
2019-01-10T20:02:35.002Z,70.12
2019-01-10T20:06:39.224Z,69.40
2019-01-10T20:10:43.393Z,69.58
2019-01-10T20:14:47.527Z,69.42
2019-01-10T20:18:51.752Z,69.57
2019-01-10T20:22:57.785Z,69.64
2019-01-10T20:27:02.020Z,69.13
2019-01-10T20:31:06.192Z,69.14
2019-01-10T20:35:10.784Z,69.09
2019-01-10T20:39:15.023Z,69.23
2019-01-10T20:43:19.219Z,69.27
2019-01-10T20:47:23.483Z,69.31
2019-01-10T20:51:27.736Z,69.30
2019-01-10T20:55:31.949Z,69.14
2019-01-10T20:59:36.107Z,69.08
2019-01-10T21:03:40.233Z,68.36
2019-01-10T21:07:47.028Z,68.36
2019-01-10T21:11:51.167Z,68.19
2019-01-10T21:15:58.497Z,68.46
2019-01-10T21:20:02.779Z,68.26
2019-01-10T21:24:06.929Z,68.50
2019-01-10T21:28:11.109Z,68.55
2019-01-10T21:32:15.245Z,68.19
2019-01-10T21:36:19.970Z,68.31
2019-01-10T21:40:24.750Z,68.49
2019-01-10T21:44:28.895Z,68.67
2019-01-10T21:48:35.163Z,68.00
2019-01-10T21:52:39.003Z,68.29
2019-01-10T21:56:44.537Z,68.52
2019-01-10T22:00:48.893Z,68.51
2019-01-10T22:04:53.230Z,68.69
2019-01-10T22:08:57.515Z,68.41
2019-01-10T22:13:01.819Z,68.35
2019-01-10T22:17:06.021Z,68.74
2019-01-10T22:21:10.189Z,68.66
2019-01-10T22:25:14.417Z,68.74
2019-01-10T22:29:18.863Z,69.01
2019-01-10T22:33:23.023Z,69.06
2019-01-10T22:37:29.168Z,69.20
2019-01-10T22:41:33.080Z,69.04
2019-01-10T22:45:37.261Z,68.85
2019-01-10T22:49:41.451Z,68.57
2019-01-10T22:53:45.613Z,68.08
2019-01-10T22:57:50.122Z,67.39
2019-01-10T23:01:57.232Z,66.49
2019-01-10T23:06:01.450Z,66.08
2019-01-10T23:10:09.007Z,65.31
2019-01-10T23:14:13.541Z,65.14
2019-01-10T23:18:17.724Z,65.78
2019-01-10T23:22:21.901Z,65.72
2019-01-10T23:26:26.075Z,65.92
2019-01-10T23:30:56.532Z,65.78
2019-01-10T23:35:00.696Z,65.61
2019-01-10T23:39:19.280Z,65.51
2019-01-10T23:43:23.417Z,65.20
2019-01-10T23:47:27.544Z,65.31
2019-01-10T23:51:31.753Z,64.93
2019-01-10T23:55:36.220Z,64.92
2019-01-10T23:59:40.394Z,64.80
